Time;durP1;ratioP1;P1;durP2;ratioP2;P2;SDS_P1;SDS_P2;PMS_P1;PMS_P2;Temp;Humidity;BMP_temperature;BMP_pressure;BME280_temperature;BME280_humidity;BME280_pressure;Samples;Min_cycle;Max_cycle;Signal;HPM_P1;HPM_P2
2022/01/22 00:01:30;;;;;;;6.00;2.70;;;;;;100228.18;;;;106635;1294;63551;-34
2022/01/22 00:03:57;;;;;;;5.40;2.50;;;;;;100230.20;;;;106804;1293;63447;-34
2022/01/22 00:06:27;;;;;;;5.80;2.70;;;;;;100223.20;;;;106842;1294;63429;-34
2022/01/22 00:08:54;;;;;;;5.90;2.60;;;;;;100219.55;;;;106655;1296;66968;-34
2022/01/22 00:11:21;;;;;;;5.30;2.70;;;;;;100223.60;;;;106835;1293;63526;-35
2022/01/22 00:16:35;;;;;;;6.00;2.90;;;;;;100224.24;;;;106815;1293;63359;-42
2022/01/22 00:19:03;;;;;;;5.20;2.70;;;;;;100222.70;;;;106855;1293;63383;-37
2022/01/22 00:21:30;;;;;;;6.10;3.00;;;;;;100220.16;;;;106824;1293;67089;-35
2022/01/22 00:24:02;;;;;;;6.80;3.10;;;;;;100223.91;;;;106827;1293;63408;-42
2022/01/22 00:26:29;;;;;;;6.70;2.90;;;;;;100221.84;;;;106655;1294;63601;-42
2022/01/22 00:28:56;;;;;;;6.70;2.90;;;;;;100225.55;;;;106820;1293;63413;-43
2022/01/22 00:31:23;;;;;;;6.90;3.40;;;;;;100228.39;;;;106830;1293;63341;-43
2022/01/22 00:33:51;;;;;;;6.50;3.00;;;;;;100231.25;;;;106828;1294;67002;-42
2022/01/22 00:36:18;;;;;;;5.70;2.70;;;;;;100227.90;;;;106827;1293;63355;-42
2022/01/22 00:38:45;;;;;;;6.50;2.80;;;;;;100225.60;;;;106562;1297;63379;-42
2022/01/22 00:41:12;;;;;;;6.30;2.90;;;;;;100227.25;;;;106662;1294;63521;-42
2022/01/22 00:43:39;;;;;;;7.00;2.80;;;;;;100222.36;;;;106837;1294;63735;-35
2022/01/22 00:46:07;;;;;;;6.40;2.70;;;;;;100228.33;;;;106816;1293;68499;-34
2022/01/22 00:48:34;;;;;;;6.70;2.70;;;;;;100232.30;;;;106851;1293;63389;-34
2022/01/22 00:51:01;;;;;;;5.60;2.80;;;;;;100229.10;;;;106829;1293;63297;-34
2022/01/22 00:53:28;;;;;;;6.80;3.00;;;;;;100236.90;;;;106641;1294;63479;-42
2022/01/22 00:55:55;;;;;;;6.60;3.40;;;;;;100241.82;;;;106842;1292;63754;-42
2022/01/22 00:58:22;;;;;;;6.40;3.20;;;;;;100241.85;;;;106848;1294;67174;-34
2022/01/22 01:00:50;;;;;;;6.40;2.90;;;;;;100240.08;;;;106822;1294;63378;-34
2022/01/22 01:03:20;;;;;;;6.90;3.10;;;;;;100239.27;;;;106358;1293;655096;-42
2022/01/22 01:05:50;;;;;;;7.40;3.00;;;;;;100240.45;;;;106824;1293;63466;-42
2022/01/22 01:08:17;;;;;;;5.80;2.80;;;;;;100241.86;;;;106852;1293;63356;-34
2022/01/22 01:10:45;;;;;;;6.20;2.80;;;;;;100241.27;;;;106846;1294;66819;-34
2022/01/22 01:13:14;;;;;;;5.40;2.70;;;;;;100234.21;;;;106686;1293;63528;-35
2022/01/22 01:33:04;;;;;;;5.10;2.40;;;;;;100221.97;;;;106839;1294;63381;-42
2022/01/22 01:35:30;;;;;;;6.00;2.80;;;;;;100222.39;;;;106840;1293;63407;-43
2022/01/22 01:38:00;;;;;;;5.70;2.50;;;;;;100220.98;;;;106839;1294;67967;-42
2022/01/22 01:40:29;;;;;;;6.00;2.70;;;;;;100223.66;;;;106829;1293;63398;-42
2022/01/22 01:43:20;;;;;;;4.70;2.30;;;;;;100217.30;;;;106828;1294;63411;-41
2022/01/22 01:45:47;;;;;;;6.10;2.40;;;;;;100220.90;;;;106815;1294;63494;-42
2022/01/22 01:48:20;;;;;;;5.70;2.70;;;;;;100215.90;;;;106846;1294;63413;-42
2022/01/22 01:50:50;;;;;;;5.90;3.00;;;;;;100205.02;;;;106867;1294;65772;-42
2022/01/22 01:55:51;;;;;;;6.20;2.80;;;;;;100217.02;;;;106849;1294;63385;-34
2022/01/22 01:58:18;;;;;;;6.10;2.90;;;;;;100218.95;;;;106469;1297;63344;-42
2022/01/22 02:00:47;;;;;;;5.70;2.60;;;;;;100218.59;;;;106856;1293;63344;-42
2022/01/22 02:03:18;;;;;;;5.60;2.80;;;;;;100219.63;;;;106864;1293;66097;-34
2022/01/22 02:05:45;;;;;;;5.90;2.60;;;;;;100222.56;;;;106830;1294;63506;-35
2022/01/22 02:08:17;;;;;;;4.70;2.40;;;;;;100221.71;;;;106840;1294;63342;-34
2022/01/22 02:10:54;;;;;;;6.10;2.70;;;;;;100220.14;;;;106639;1294;63381;-34
2022/01/22 02:24:57;;;;;;;6.20;3.00;;;;;;100212.98;;;;106812;1293;63391;-41
2022/01/22 02:27:27;;;;;;;7.00;2.50;;;;;;100211.13;;;;106865;1294;63365;-35
2022/01/22 02:29:54;;;;;;;5.10;2.40;;;;;;100207.16;;;;106847;1293;66972;-31
2022/01/22 02:35:51;;;;;;;6.80;2.40;;;;;;100196.20;;;;106858;1294;63381;-33
2022/01/22 02:37:57;;;;;;;4.70;2.50;;;;;;100192.89;;;;106757;1294;63343;-34
2022/01/22 02:40:31;;;;;;;5.70;2.80;;;;;;100196.41;;;;106845;1294;63340;-44
2022/01/22 02:43:01;;;;;;;5.80;2.60;;;;;;100196.93;;;;106833;1294;68537;-32
2022/01/22 02:45:31;;;;;;;5.00;2.40;;;;;;100198.83;;;;106815;1293;63355;-31
2022/01/22 02:47:58;;;;;;;6.00;2.40;;;;;;100197.59;;;;106828;1294;63420;-33
2022/01/22 02:50:29;;;;;;;4.80;2.40;;;;;;100199.27;;;;106645;1297;63463;-33
2022/01/22 02:52:56;;;;;;;6.30;2.70;;;;;;100199.92;;;;106652;1296;63310;-33
2022/01/22 02:55:23;;;;;;;5.10;2.40;;;;;;100197.20;;;;106836;1293;67319;-33
2022/01/22 02:57:50;;;;;;;5.50;2.70;;;;;;100198.02;;;;106833;1294;63491;-31
2022/01/22 03:00:22;;;;;;;5.30;2.20;;;;;;100198.85;;;;106792;1293;63397;-31
2022/01/22 03:02:50;;;;;;;4.60;2.00;;;;;;100201.15;;;;106812;1293;63463;-32
2022/01/22 03:05:21;;;;;;;4.80;2.10;;;;;;100204.62;;;;106826;1294;63362;-31
2022/01/22 03:07:52;;;;;;;6.00;2.40;;;;;;100212.70;;;;106811;1293;66998;-33
2022/01/22 03:10:23;;;;;;;4.70;2.00;;;;;;100224.06;;;;106587;1292;63468;-33
2022/01/22 03:13:09;;;;;;;4.80;2.50;;;;;;100217.10;;;;106660;1294;63465;-31
2022/01/22 03:18:37;;;;;;;5.10;2.20;;;;;;100213.81;;;;106823;1293;63419;-31
2022/01/22 03:21:30;;;;;;;4.60;2.00;;;;;;100212.56;;;;106806;1292;68014;-31
2022/01/22 03:29:39;;;;;;;6.10;2.60;;;;;;100224.45;;;;106797;1293;63518;-33
2022/01/22 03:32:11;;;;;;;5.00;2.30;;;;;;100230.00;;;;106846;1293;63369;-32
2022/01/22 03:34:44;;;;;;;4.80;2.40;;;;;;100221.63;;;;106664;1296;67055;-31
2022/01/22 03:37:14;;;;;;;5.40;2.50;;;;;;100225.15;;;;106718;1296;63469;-43
2022/01/22 03:39:41;;;;;;;4.40;1.90;;;;;;100220.31;;;;106805;1294;63327;-33
2022/01/22 03:42:08;;;;;;;5.00;2.20;;;;;;100226.83;;;;106813;1294;63536;-32
2022/01/22 03:44:35;;;;;;;4.60;2.10;;;;;;100219.38;;;;106829;1293;63372;-33
2022/01/22 03:47:06;;;;;;;5.40;2.20;;;;;;100221.53;;;;106728;1294;67294;-32
2022/01/22 03:49:33;;;;;;;5.00;2.00;;;;;;100228.60;;;;106661;1294;63448;-33
2022/01/22 03:52:00;;;;;;;4.50;2.10;;;;;;100228.97;;;;106839;1293;63407;-34
2022/01/22 03:54:27;;;;;;;5.20;2.30;;;;;;100235.60;;;;106807;1294;63327;-31
2022/01/22 03:56:55;;;;;;;5.10;2.10;;;;;;100238.41;;;;106853;1293;63405;-32
2022/01/22 03:59:22;;;;;;;4.70;2.20;;;;;;100241.88;;;;106679;1294;67010;-31
2022/01/22 04:04:30;;;;;;;5.10;2.10;;;;;;100239.89;;;;106794;1293;63442;-35
2022/01/22 04:07:38;;;;;;;4.50;2.10;;;;;;100236.70;;;;106815;1294;63442;-42
2022/01/22 04:09:59;;;;;;;4.80;2.20;;;;;;100237.20;;;;106815;1294;63333;-42
2022/01/22 04:13:13;;;;;;;4.90;2.10;;;;;;100240.03;;;;106689;1293;68589;-42
2022/01/22 04:15:24;;;;;;;5.80;2.10;;;;;;100242.67;;;;106754;1294;63411;-42
2022/01/22 04:26:34;;;;;;;5.10;2.10;;;;;;100256.25;;;;106679;1294;66984;-42
2022/01/22 04:29:01;;;;;;;4.80;1.90;;;;;;100257.98;;;;106834;1294;63474;-43
2022/01/22 04:31:29;;;;;;;5.20;2.10;;;;;;100258.38;;;;106814;1293;63404;-48
2022/01/22 04:33:56;;;;;;;4.60;1.70;;;;;;100261.80;;;;106638;1294;63427;-43
2022/01/22 04:36:23;;;;;;;5.50;2.50;;;;;;100265.54;;;;106835;1294;63404;-42
2022/01/22 04:38:50;;;;;;;4.80;1.80;;;;;;100263.08;;;;106838;1294;66798;-43
2022/01/22 04:41:17;;;;;;;5.80;2.10;;;;;;100268.85;;;;106813;1294;63407;-42
2022/01/22 04:43:45;;;;;;;5.20;2.10;;;;;;100274.96;;;;106841;1294;63315;-37
2022/01/22 04:46:24;;;;;;;4.50;1.80;;;;;;100278.10;;;;106831;1294;63463;-35
2022/01/22 04:49:08;;;;;;;4.50;1.80;;;;;;100282.48;;;;106817;1293;63390;-34
2022/01/22 04:57:07;;;;;;;5.20;2.00;;;;;;100294.34;;;;106745;1294;63411;-32
2022/01/22 04:59:34;;;;;;;5.70;2.10;;;;;;100298.73;;;;106808;1293;63293;-32
2022/01/22 05:02:04;;;;;;;4.10;1.90;;;;;;100300.59;;;;106842;1293;63382;-32
2022/01/22 05:04:31;;;;;;;5.30;2.00;;;;;;100298.08;;;;106660;1293;65775;-32
2022/01/22 05:07:02;;;;;;;4.70;2.10;;;;;;100300.30;;;;106804;1293;63559;-32
2022/01/22 05:09:30;;;;;;;4.70;1.90;;;;;;100299.89;;;;106824;1293;63425;-32
2022/01/22 05:11:58;;;;;;;5.00;2.00;;;;;;100303.09;;;;106835;1293;63405;-34
2022/01/22 05:14:25;;;;;;;4.80;1.70;;;;;;100294.08;;;;106848;1293;63341;-34
2022/01/22 05:16:56;;;;;;;5.20;1.90;;;;;;100294.98;;;;106822;1294;68044;-34
2022/01/22 05:19:34;;;;;;;5.70;1.70;;;;;;100295.27;;;;106635;1294;63441;-32
2022/01/22 05:22:13;;;;;;;5.10;1.90;;;;;;100297.29;;;;106812;1294;63331;-32
2022/01/22 05:24:45;;;;;;;4.80;2.00;;;;;;100303.13;;;;106836;1294;63303;-33
2022/01/22 05:37:47;;;;;;;5.80;2.20;;;;;;100310.27;;;;106842;1294;63291;-34
2022/01/22 05:40:14;;;;;;;5.10;2.10;;;;;;100315.67;;;;106694;1294;63513;-37
2022/01/22 05:42:41;;;;;;;4.50;1.90;;;;;;100320.70;;;;106885;1294;65574;-37
2022/01/22 05:45:09;;;;;;;4.60;1.90;;;;;;100321.54;;;;106852;1294;63400;-35
2022/01/22 05:47:36;;;;;;;5.30;2.10;;;;;;100325.12;;;;106681;1294;63360;-34
2022/01/22 05:50:10;;;;;;;4.70;2.00;;;;;;100327.92;;;;106825;1293;63369;-35
2022/01/22 05:52:51;;;;;;;5.20;1.80;;;;;;100332.92;;;;106873;1294;63428;-34
2022/01/22 05:55:41;;;;;;;4.70;1.80;;;;;;100340.94;;;;106674;1294;67533;-35
2022/01/22 06:01:00;;;;;;;3.90;1.70;;;;;;100352.48;;;;106836;1294;63481;-43
2022/01/22 06:03:30;;;;;;;4.20;1.70;;;;;;100357.80;;;;106853;1293;63281;-42
2022/01/22 06:05:58;;;;;;;5.80;1.70;;;;;;100362.93;;;;106756;1294;63370;-42
2022/01/22 06:08:30;;;;;;;4.50;1.60;;;;;;100371.65;;;;106870;1293;67577;-43
2022/01/22 06:10:59;;;;;;;5.00;1.80;;;;;;100372.81;;;;106676;1293;63363;-43
2022/01/22 06:13:43;;;;;;;5.80;2.10;;;;;;100373.05;;;;106855;1294;63522;-43
2022/01/22 06:16:16;;;;;;;4.50;1.90;;;;;;100379.85;;;;106851;1293;63821;-42
2022/01/22 06:18:43;;;;;;;4.40;1.90;;;;;;100379.42;;;;106864;1293;63353;-35
2022/01/22 06:21:13;;;;;;;6.60;2.40;;;;;;100378.95;;;;106669;1294;67409;-34
2022/01/22 06:23:41;;;;;;;4.30;2.00;;;;;;100388.55;;;;106848;1294;63302;-39
2022/01/22 06:26:09;;;;;;;4.90;1.90;;;;;;100393.64;;;;106845;1293;63460;-34
2022/01/22 06:28:37;;;;;;;4.90;1.80;;;;;;100387.40;;;;106832;1294;63400;-42
2022/01/22 06:31:05;;;;;;;4.80;2.60;;;;;;100392.82;;;;106879;1293;63779;-43
2022/01/22 06:33:32;;;;;;;4.70;1.70;;;;;;100386.92;;;;106865;1293;66030;-43
2022/01/22 06:36:03;;;;;;;4.70;1.70;;;;;;100383.98;;;;106836;1293;63559;-42
2022/01/22 06:38:30;;;;;;;4.20;1.60;;;;;;100391.95;;;;106842;1294;63449;-34
2022/01/22 06:43:43;;;;;;;4.90;2.00;;;;;;100405.02;;;;106844;1293;63359;-32
2022/01/22 06:46:14;;;;;;;3.90;1.50;;;;;;100416.38;;;;106678;1294;67348;-32
2022/01/22 06:48:41;;;;;;;4.40;1.80;;;;;;100419.66;;;;106845;1294;63469;-45
2022/01/22 06:51:11;;;;;;;5.00;2.00;;;;;;100420.76;;;;106866;1294;63482;-34
2022/01/22 06:53:40;;;;;;;4.80;1.90;;;;;;100424.04;;;;106815;1294;63356;-34
2022/01/22 06:56:18;;;;;;;3.80;1.70;;;;;;100426.56;;;;106868;1294;63349;-34
2022/01/22 06:58:45;;;;;;;4.10;1.40;;;;;;100427.58;;;;106849;1294;67289;-38
2022/01/22 07:01:12;;;;;;;4.60;1.50;;;;;;100425.78;;;;106652;1294;63920;-32
2022/01/22 07:03:39;;;;;;;4.00;1.60;;;;;;100427.60;;;;106660;1294;63521;-34
2022/01/22 07:06:06;;;;;;;5.00;1.90;;;;;;100433.49;;;;106815;1294;63481;-33
2022/01/22 07:08:34;;;;;;;4.60;1.70;;;;;;100434.91;;;;106852;1294;63439;-32
2022/01/22 07:11:01;;;;;;;4.00;1.30;;;;;;100437.38;;;;106851;1293;68394;-32
2022/01/22 07:13:32;;;;;;;3.60;1.60;;;;;;100443.69;;;;106841;1294;63537;-34
2022/01/22 07:16:03;;;;;;;4.00;1.40;;;;;;100446.54;;;;106812;1294;63382;-41
2022/01/22 07:18:31;;;;;;;3.40;1.40;;;;;;100448.66;;;;106842;1294;63387;-32
2022/01/22 07:20:58;;;;;;;3.60;1.50;;;;;;100454.37;;;;106866;1293;63358;-32
2022/01/22 07:25:58;;;;;;;5.10;1.70;;;;;;100453.39;;;;106838;1294;63441;-32
2022/01/22 07:28:28;;;;;;;4.20;1.50;;;;;;100450.93;;;;106838;1294;63366;-32
2022/01/22 07:30:56;;;;;;;5.00;1.60;;;;;;100449.16;;;;106838;1293;63376;-32
2022/01/22 07:33:24;;;;;;;4.00;1.40;;;;;;100452.97;;;;106781;1294;63334;-32
2022/01/22 07:35:52;;;;;;;3.90;1.50;;;;;;100460.01;;;;106898;1293;66854;-33
2022/01/22 07:38:21;;;;;;;3.50;1.30;;;;;;100463.94;;;;106703;1294;63551;-32
2022/01/22 07:40:51;;;;;;;3.90;1.60;;;;;;100463.96;;;;106897;1293;63368;-32
2022/01/22 07:43:21;;;;;;;4.30;1.50;;;;;;100469.95;;;;106659;1294;63438;-34
2022/01/22 07:45:49;;;;;;;3.80;1.70;;;;;;100475.20;;;;106877;1294;63301;-35
2022/01/22 07:48:16;;;;;;;4.00;1.40;;;;;;100487.95;;;;106684;1294;67310;-34
2022/01/22 07:50:43;;;;;;;3.80;1.30;;;;;;100496.15;;;;106838;1293;63468;-32
2022/01/22 07:53:10;;;;;;;4.20;1.40;;;;;;100507.69;;;;106670;1294;63455;-39
2022/01/22 07:55:39;;;;;;;4.30;1.60;;;;;;100516.84;;;;106843;1294;63427;-34
2022/01/22 07:58:06;;;;;;;3.40;1.30;;;;;;100521.46;;;;106877;1294;63408;-33
2022/01/22 08:00:33;;;;;;;4.30;1.60;;;;;;100529.25;;;;106833;1294;65990;-34
2022/01/22 08:03:06;;;;;;;3.90;1.50;;;;;;100534.02;;;;106836;1294;63333;-34
2022/01/22 08:05:34;;;;;;;4.30;1.60;;;;;;100533.63;;;;106659;1294;63404;-34
2022/01/22 08:08:01;;;;;;;4.10;1.60;;;;;;100531.35;;;;106824;1294;63353;-32
2022/01/22 08:10:29;;;;;;;3.60;1.50;;;;;;100537.38;;;;106848;1294;63378;-36
2022/01/22 08:12:56;;;;;;;4.90;1.70;;;;;;100541.05;;;;106866;1293;66875;-32
2022/01/22 08:15:23;;;;;;;4.50;1.40;;;;;;100546.48;;;;106825;1294;63658;-32
2022/01/22 08:17:50;;;;;;;3.80;1.50;;;;;;100544.54;;;;106808;1294;63352;-32
2022/01/22 08:20:21;;;;;;;4.50;1.50;;;;;;100551.17;;;;106798;1293;63468;-32
2022/01/22 08:22:49;;;;;;;3.80;1.40;;;;;;100558.18;;;;106777;1294;63387;-31
2022/01/22 08:25:16;;;;;;;4.80;1.70;;;;;;100568.72;;;;106768;1293;66886;-32
2022/01/22 08:30:36;;;;;;;3.80;1.40;;;;;;100575.36;;;;106806;1294;63385;-34
2022/01/22 08:35:54;;;;;;;4.10;1.50;;;;;;100587.70;;;;106816;1294;63435;-34
2022/01/22 08:38:28;;;;;;;4.80;1.70;;;;;;100597.61;;;;106696;1294;68340;-32
2022/01/22 08:40:58;;;;;;;3.90;1.50;;;;;;100603.66;;;;106799;1294;63444;-32
2022/01/22 08:43:29;;;;;;;4.20;1.70;;;;;;100606.23;;;;106679;1296;63350;-32
2022/01/22 08:45:56;;;;;;;4.30;1.70;;;;;;100620.80;;;;106765;1294;63332;-32
2022/01/22 08:48:24;;;;;;;3.70;1.60;;;;;;100627.48;;;;106845;1294;63339;-34
2022/01/22 08:50:52;;;;;;;4.90;2.00;;;;;;100628.31;;;;106686;1294;65562;-41
2022/01/22 08:53:19;;;;;;;4.90;2.00;;;;;;100629.71;;;;106802;1294;63510;-35
2022/01/22 08:55:46;;;;;;;4.70;1.80;;;;;;100627.89;;;;106779;1294;63362;-33
2022/01/22 08:58:17;;;;;;;5.80;2.10;;;;;;100624.77;;;;106809;1294;63420;-32
2022/01/22 09:00:45;;;;;;;4.90;1.90;;;;;;100625.87;;;;106823;1294;63720;-32
2022/01/22 09:03:15;;;;;;;5.00;2.10;;;;;;100635.36;;;;106575;1294;351420;-34
2022/01/22 09:05:43;;;;;;;5.10;2.20;;;;;;100643.60;;;;106795;1294;63423;-34
2022/01/22 09:08:14;;;;;;;5.20;2.40;;;;;;100653.29;;;;106817;1294;63347;-32
2022/01/22 09:10:43;;;;;;;5.40;2.10;;;;;;100657.64;;;;106812;1294;63469;-33
2022/01/22 09:13:11;;;;;;;4.20;1.90;;;;;;100662.53;;;;106608;1294;63485;-34
2022/01/22 09:15:38;;;;;;;5.30;2.10;;;;;;100665.15;;;;106676;1293;67486;-38
2022/01/22 09:18:07;;;;;;;5.50;2.30;;;;;;100667.98;;;;106833;1294;63483;-34
2022/01/22 09:23:07;;;;;;;5.30;2.30;;;;;;100669.05;;;;106815;1294;63458;-41
2022/01/22 09:25:35;;;;;;;4.80;2.20;;;;;;100666.91;;;;106681;1294;63720;-40
2022/01/22 09:28:04;;;;;;;5.00;1.90;;;;;;100677.19;;;;106835;1294;66976;-31
2022/01/22 09:30:35;;;;;;;5.20;1.90;;;;;;100684.14;;;;106785;1294;63350;-37
2022/01/22 09:33:05;;;;;;;5.70;2.30;;;;;;100686.33;;;;106817;1294;63323;-35
2022/01/22 09:35:32;;;;;;;4.50;2.00;;;;;;100688.05;;;;106807;1293;63314;-35
2022/01/22 09:38:00;;;;;;;5.30;2.50;;;;;;100690.98;;;;106814;1294;63399;-42
2022/01/22 09:40:29;;;;;;;5.00;2.00;;;;;;100685.91;;;;106666;1294;65825;-43
2022/01/22 09:42:59;;;;;;;4.90;2.00;;;;;;100688.27;;;;106815;1294;63552;-50
2022/01/22 09:45:28;;;;;;;5.00;2.20;;;;;;100691.02;;;;106829;1293;63444;-42
2022/01/22 09:47:56;;;;;;;4.60;2.10;;;;;;100697.90;;;;106652;1293;63487;-34
2022/01/22 09:50:24;;;;;;;5.40;2.00;;;;;;100702.52;;;;106861;1294;63412;-37
2022/01/22 09:52:52;;;;;;;4.60;1.90;;;;;;100708.67;;;;106800;1293;65527;-34
2022/01/22 09:55:22;;;;;;;5.10;2.00;;;;;;100710.39;;;;106722;1294;63393;-35
2022/01/22 09:57:50;;;;;;;5.10;2.40;;;;;;100716.31;;;;106833;1293;63318;-34
2022/01/22 10:00:20;;;;;;;5.00;2.20;;;;;;100720.93;;;;106807;1293;63446;-37
2022/01/22 10:02:50;;;;;;;5.00;2.10;;;;;;100725.55;;;;106823;1294;63324;-35
2022/01/22 10:05:36;;;;;;;5.40;2.30;;;;;;100735.09;;;;106831;1294;66966;-32
2022/01/22 10:08:21;;;;;;;4.80;1.90;;;;;;100739.23;;;;106694;1294;63399;-32
2022/01/22 10:10:48;;;;;;;4.80;1.80;;;;;;100742.66;;;;106593;1293;63421;-32
2022/01/22 10:13:59;;;;;;;4.20;1.70;;;;;;100750.70;;;;106809;1293;63439;-33
2022/01/22 10:16:40;;;;;;;5.30;1.80;;;;;;100752.50;;;;106827;1294;63440;-32
2022/01/22 10:19:22;;;;;;;5.10;1.80;;;;;;100756.15;;;;106817;1293;68544;-32
2022/01/22 10:22:01;;;;;;;4.20;1.70;;;;;;100757.19;;;;106815;1294;63383;-32
2022/01/22 10:24:42;;;;;;;4.30;1.70;;;;;;100768.30;;;;106795;1293;63459;-32
2022/01/22 10:27:37;;;;;;;4.30;1.90;;;;;;100772.80;;;;106614;1294;63423;-33
2022/01/22 10:30:16;;;;;;;4.30;1.80;;;;;;100772.71;;;;106848;1294;63420;-34
2022/01/22 10:35:24;;;;;;;4.40;1.90;;;;;;100789.56;;;;106781;1293;63302;-34
2022/01/22 10:37:55;;;;;;;4.40;1.60;;;;;;100787.95;;;;106816;1294;63339;-37
2022/01/22 10:40:29;;;;;;;3.90;1.30;;;;;;100804.41;;;;106803;1294;63341;-37
2022/01/22 10:43:30;;;;;;;5.00;2.10;;;;;;100804.93;;;;106828;1294;63367;-35
2022/01/22 10:49:14;;;;;;;4.40;1.50;;;;;;100811.21;;;;106667;1294;63397;-43
2022/01/22 10:51:50;;;;;;;5.00;1.60;;;;;;100813.45;;;;106747;1293;63369;-43
2022/01/22 10:54:27;;;;;;;4.90;1.50;;;;;;100817.15;;;;106806;1293;63369;-35
2022/01/22 10:57:19;;;;;;;4.20;1.60;;;;;;100823.64;;;;106824;1294;63367;-35
2022/01/22 10:59:58;;;;;;;5.00;1.60;;;;;;100825.76;;;;106711;1294;67319;-35
2022/01/22 11:02:32;;;;;;;4.50;1.60;;;;;;100830.67;;;;106593;1294;63449;-42
2022/01/22 11:04:59;;;;;;;4.20;1.80;;;;;;100836.98;;;;106786;1294;63367;-43
2022/01/22 11:07:27;;;;;;;4.40;1.70;;;;;;100839.10;;;;106813;1294;63313;-42
2022/01/22 11:09:55;;;;;;;4.80;1.70;;;;;;100846.80;;;;106834;1294;63332;-43
2022/01/22 11:12:22;;;;;;;4.10;1.50;;;;;;100848.76;;;;106809;1294;67346;-42
2022/01/22 11:14:49;;;;;;;3.70;1.40;;;;;;100853.35;;;;106809;1294;63527;-43
2022/01/22 11:17:18;;;;;;;4.90;2.30;;;;;;100857.23;;;;106653;1294;63340;-37
2022/01/22 11:19:48;;;;;;;4.70;1.60;;;;;;100858.44;;;;106730;1294;63366;-36
2022/01/22 11:22:18;;;;;;;5.40;1.70;;;;;;100858.27;;;;106756;1294;63357;-37
2022/01/22 11:24:50;;;;;;;5.00;1.70;;;;;;100860.89;;;;106817;1294;67074;-35
2022/01/22 11:27:21;;;;;;;5.00;1.90;;;;;;100866.23;;;;106665;1294;63390;-43
2022/01/22 11:29:57;;;;;;;5.20;1.80;;;;;;100870.79;;;;106807;1294;63426;-43
2022/01/22 11:32:33;;;;;;;4.40;1.70;;;;;;100874.63;;;;106651;1294;63430;-43
2022/01/22 11:35:05;;;;;;;3.90;1.50;;;;;;100880.16;;;;106685;1294;63455;-34
2022/01/22 11:37:43;;;;;;;4.80;1.80;;;;;;100880.55;;;;106679;1294;68700;-42
2022/01/22 11:40:15;;;;;;;3.90;1.40;;;;;;100881.70;;;;106831;1293;63442;-42
2022/01/22 11:43:13;;;;;;;4.50;1.60;;;;;;100882.32;;;;106592;1294;63520;-42
2022/01/22 11:45:51;;;;;;;4.30;1.50;;;;;;100874.79;;;;106795;1293;63415;-42
2022/01/22 11:48:32;;;;;;;4.80;1.70;;;;;;100876.71;;;;106827;1294;63377;-43
2022/01/22 11:51:23;;;;;;;4.50;1.70;;;;;;100876.48;;;;106678;1294;67063;-43
2022/01/22 11:53:56;;;;;;;5.20;1.50;;;;;;100880.89;;;;106581;1293;63435;-43
2022/01/22 11:56:28;;;;;;;5.10;1.60;;;;;;100881.30;;;;106856;1293;63373;-43
2022/01/22 11:59:05;;;;;;;3.90;1.70;;;;;;100881.80;;;;106832;1294;63315;-34
2022/01/22 12:04:38;;;;;;;5.50;1.50;;;;;;100885.95;;;;106856;1294;67994;-35
2022/01/22 12:07:05;;;;;;;4.50;1.90;;;;;;100885.84;;;;106843;1293;63355;-43
2022/01/22 12:09:42;;;;;;;4.60;1.60;;;;;;100889.67;;;;106809;1293;63359;-43
2022/01/22 12:15:40;;;;;;;3.50;1.40;;;;;;100909.42;;;;106839;1294;63329;-36
2022/01/22 12:18:12;;;;;;;4.10;1.70;;;;;;100911.77;;;;106804;1294;67698;-34
2022/01/22 12:23:34;;;;;;;4.00;1.80;;;;;;100920.79;;;;106667;1294;63366;-43
2022/01/22 12:26:03;;;;;;;4.40;1.70;;;;;;100922.77;;;;106692;1294;63351;-43
2022/01/22 12:28:45;;;;;;;5.60;1.90;;;;;;100924.05;;;;106683;1294;63357;-43
2022/01/22 12:31:16;;;;;;;4.70;1.60;;;;;;100927.67;;;;106729;1294;66983;-44
2022/01/22 12:33:47;;;;;;;3.90;1.60;;;;;;100926.09;;;;106799;1293;63441;-43
2022/01/22 12:36:27;;;;;;;5.00;2.10;;;;;;100930.67;;;;106804;1293;63285;-43
2022/01/22 12:39:11;;;;;;;4.50;1.60;;;;;;100936.85;;;;106669;1294;63464;-35
2022/01/22 12:47:01;;;;;;;4.10;1.60;;;;;;100939.07;;;;106803;1294;63459;-37
2022/01/22 12:49:29;;;;;;;5.80;1.40;;;;;;100940.80;;;;106773;1294;63369;-42
2022/01/22 12:52:01;;;;;;;3.80;1.70;;;;;;100943.05;;;;106544;1294;63389;-42
2022/01/22 12:54:31;;;;;;;4.00;1.60;;;;;;100945.89;;;;106584;1297;63485;-34
2022/01/22 12:57:07;;;;;;;4.90;1.70;;;;;;100948.00;;;;106746;1294;68266;-45
2022/01/22 13:00:17;;;;;;;3.10;1.50;;;;;;100949.72;;;;106822;1293;63468;-35
2022/01/22 13:02:51;;;;;;;3.70;1.40;;;;;;100955.73;;;;106684;1293;63463;-42
2022/01/22 13:05:20;;;;;;;3.90;1.60;;;;;;100960.55;;;;106636;1294;63453;-39
2022/01/22 13:07:53;;;;;;;4.30;1.90;;;;;;100962.11;;;;106851;1294;63351;-43
2022/01/22 13:10:31;;;;;;;5.20;1.50;;;;;;100963.05;;;;106721;1294;68294;-39
2022/01/22 13:13:01;;;;;;;4.80;2.20;;;;;;100966.66;;;;106823;1294;63392;-34
2022/01/22 13:15:30;;;;;;;4.40;1.50;;;;;;100976.50;;;;106797;1294;63533;-45
2022/01/22 13:18:03;;;;;;;4.00;1.80;;;;;;100981.35;;;;106797;1294;63448;-40
2022/01/22 13:20:35;;;;;;;4.00;1.60;;;;;;100988.86;;;;106721;1297;63598;-43
2022/01/22 13:23:18;;;;;;;3.90;1.70;;;;;;100994.71;;;;106624;1294;68609;-42
2022/01/22 13:25:46;;;;;;;4.20;1.70;;;;;;101002.08;;;;106639;1294;63519;-43
2022/01/22 13:28:15;;;;;;;4.50;1.80;;;;;;101004.18;;;;106935;1293;63444;-42
2022/01/22 13:30:56;;;;;;;4.60;1.70;;;;;;101010.05;;;;106817;1293;63451;-43
2022/01/22 13:38:56;;;;;;;7.30;1.90;;;;;;101008.38;;;;106810;1294;63465;-42
2022/01/22 13:50:03;;;;;;;4.20;1.60;;;;;;101024.42;;;;106486;1297;66992;-42
2022/01/22 13:52:30;;;;;;;4.00;1.60;;;;;;101025.14;;;;106632;1296;63602;-44
2022/01/22 13:54:59;;;;;;;3.90;1.60;;;;;;101029.67;;;;106683;1294;63425;-44
2022/01/22 13:57:31;;;;;;;3.60;1.60;;;;;;101032.61;;;;106594;1296;63539;-34
2022/01/22 13:59:59;;;;;;;5.00;1.80;;;;;;101034.98;;;;106652;1294;63429;-43
2022/01/22 14:02:37;;;;;;;5.00;1.90;;;;;;101042.36;;;;106836;1294;65785;-34
2022/01/22 14:05:08;;;;;;;5.10;1.70;;;;;;101038.98;;;;106931;1293;63329;-34
2022/01/22 14:07:45;;;;;;;6.60;2.00;;;;;;101037.34;;;;106856;1293;63408;-42
2022/01/22 14:10:14;;;;;;;5.20;1.90;;;;;;101044.84;;;;106817;1293;64006;-42
2022/01/22 14:12:42;;;;;;;4.10;1.80;;;;;;101051.16;;;;106858;1294;63406;-43
2022/01/22 14:15:24;;;;;;;5.20;2.00;;;;;;101055.39;;;;106917;1293;65799;-44
2022/01/22 14:18:22;;;;;;;4.90;2.00;;;;;;101057.64;;;;106860;1293;63481;-45
2022/01/22 14:20:53;;;;;;;5.20;2.50;;;;;;101063.41;;;;106580;1294;63433;-43
2022/01/22 14:23:23;;;;;;;7.00;2.60;;;;;;101072.27;;;;106659;1296;63433;-43
2022/01/22 14:25:59;;;;;;;7.20;2.50;;;;;;101082.38;;;;106642;1294;63432;-42
2022/01/22 14:28:50;;;;;;;8.30;2.80;;;;;;101089.27;;;;106808;1293;67974;-43
2022/01/22 14:31:43;;;;;;;8.10;3.00;;;;;;101092.67;;;;106690;1294;63592;-43
2022/01/22 14:34:29;;;;;;;8.20;3.60;;;;;;101094.71;;;;106839;1294;63347;-40
2022/01/22 14:36:57;;;;;;;8.20;2.80;;;;;;101097.08;;;;106923;1293;63798;-41
2022/01/22 14:44:58;;;;;;;7.80;2.50;;;;;;101107.45;;;;106647;1294;63488;-46
2022/01/22 14:47:28;;;;;;;7.40;2.70;;;;;;101111.09;;;;106507;1296;63347;-39
2022/01/22 14:50:08;;;;;;;7.70;3.10;;;;;;101112.66;;;;106774;1294;63374;-42
2022/01/22 14:52:35;;;;;;;8.50;2.90;;;;;;101115.23;;;;106686;1293;63384;-40
2022/01/22 14:55:10;;;;;;;8.90;2.80;;;;;;101115.13;;;;106801;1293;66995;-39
2022/01/22 14:57:42;;;;;;;8.80;3.30;;;;;;101126.59;;;;106538;1295;63590;-41
2022/01/22 15:00:15;;;;;;;6.90;2.70;;;;;;101129.86;;;;106629;1294;63364;-40
2022/01/22 15:02:44;;;;;;;7.90;2.90;;;;;;101131.59;;;;106618;1296;63470;-39
2022/01/22 15:05:14;;;;;;;9.30;2.70;;;;;;101136.84;;;;106649;1294;63845;-39
2022/01/22 15:07:45;;;;;;;7.00;2.70;;;;;;101137.14;;;;106638;1297;65526;-40
2022/01/22 15:10:20;;;;;;;7.40;2.30;;;;;;101137.40;;;;106664;1294;63385;-39
2022/01/22 15:12:48;;;;;;;7.10;3.30;;;;;;101140.29;;;;106900;1293;63919;-41
2022/01/22 15:15:19;;;;;;;7.20;2.70;;;;;;101144.73;;;;106876;1293;63522;-39
2022/01/22 15:20:29;;;;;;;7.20;2.70;;;;;;101150.48;;;;106647;1293;67285;-40
2022/01/22 15:22:57;;;;;;;7.10;2.70;;;;;;101152.45;;;;106611;1296;63429;-41